sensor_id;sensor_type;location;lat;lon;timestamp;pressure;altitude;pressure_sealevel;temperature;humidity
29045;BME280;16133;49.486;12.176;2023-05-16T00:01:09;96539.56;;;9.36;100.00
29045;BME280;16133;49.486;12.176;2023-05-16T00:03:34;96549.81;;;9.45;100.00
29045;BME280;16133;49.486;12.176;2023-05-16T00:06:02;96553.50;;;9.51;100.00
29045;BME280;16133;49.486;12.176;2023-05-16T00:08:27;96547.63;;;9.55;100.00
29045;BME280;16133;49.486;12.176;2023-05-16T00:10:53;96543.59;;;9.59;100.00
29045;BME280;16133;49.486;12.176;2023-05-16T00:13:18;96545.66;;;9.64;100.00
29045;BME280;16133;49.486;12.176;2023-05-16T00:15:49;96553.22;;;9.67;100.00
29045;BME280;16133;49.486;12.176;2023-05-16T00:18:16;96546.91;;;9.68;100.00
29045;BME280;16133;49.486;12.176;2023-05-16T00:20:42;96547.53;;;9.70;100.00
29045;BME280;16133;49.486;12.176;2023-05-16T00:23:07;96546.34;;;9.73;100.00
29045;BME280;16133;49.486;12.176;2023-05-16T00:25:33;96550.41;;;9.75;100.00
29045;BME280;16133;49.486;12.176;2023-05-16T00:27:58;96543.47;;;9.74;100.00
29045;BME280;16133;49.486;12.176;2023-05-16T00:30:23;96546.75;;;9.76;100.00
29045;BME280;16133;49.486;12.176;2023-05-16T00:32:49;96540.47;;;9.77;100.00
29045;BME280;16133;49.486;12.176;2023-05-16T00:35:14;96541.25;;;9.78;100.00
29045;BME280;16133;49.486;12.176;2023-05-16T00:37:39;96539.81;;;9.75;100.00
29045;BME280;16133;49.486;12.176;2023-05-16T00:40:06;96547.16;;;9.73;100.00
29045;BME280;16133;49.486;12.176;2023-05-16T00:42:31;96549.16;;;9.71;100.00
29045;BME280;16133;49.486;12.176;2023-05-16T00:44:57;96542.22;;;9.70;100.00
29045;BME280;16133;49.486;12.176;2023-05-16T00:47:22;96544.88;;;9.70;100.00
29045;BME280;16133;49.486;12.176;2023-05-16T00:49:48;96540.19;;;9.66;100.00
29045;BME280;16133;49.486;12.176;2023-05-16T00:52:14;96541.78;;;9.60;100.00
29045;BME280;16133;49.486;12.176;2023-05-16T00:54:40;96544.38;;;9.53;100.00
29045;BME280;16133;49.486;12.176;2023-05-16T00:57:05;96547.78;;;9.47;100.00
29045;BME280;16133;49.486;12.176;2023-05-16T00:59:31;96547.75;;;9.41;100.00
29045;BME280;16133;49.486;12.176;2023-05-16T01:01:57;96557.09;;;9.37;100.00
29045;BME280;16133;49.486;12.176;2023-05-16T01:04:23;96551.19;;;9.35;100.00
29045;BME280;16133;49.486;12.176;2023-05-16T01:06:49;96554.19;;;9.32;100.00
29045;BME280;16133;49.486;12.176;2023-05-16T01:09:15;96559.47;;;9.32;100.00
29045;BME280;16133;49.486;12.176;2023-05-16T01:14:32;96547.66;;;9.28;100.00
29045;BME280;16133;49.486;12.176;2023-05-16T01:22:53;96544.63;;;9.31;100.00
29045;BME280;16133;49.486;12.176;2023-05-16T01:28:08;96536.69;;;9.31;100.00
29045;BME280;16133;49.486;12.176;2023-05-16T01:30:37;96537.06;;;9.28;100.00
29045;BME280;16133;49.486;12.176;2023-05-16T01:33:03;96538.09;;;9.27;100.00
29045;BME280;16133;49.486;12.176;2023-05-16T01:35:29;96535.84;;;9.24;100.00
29045;BME280;16133;49.486;12.176;2023-05-16T01:38:12;96532.69;;;9.13;100.00
29045;BME280;16133;49.486;12.176;2023-05-16T01:41:14;96536.41;;;8.98;100.00
29045;BME280;16133;49.486;12.176;2023-05-16T01:43:43;96541.19;;;8.81;100.00
29045;BME280;16133;49.486;12.176;2023-05-16T01:46:13;96549.97;;;8.67;100.00
29045;BME280;16133;49.486;12.176;2023-05-16T01:51:21;96576.78;;;8.43;100.00
29045;BME280;16133;49.486;12.176;2023-05-16T01:53:48;96589.00;;;8.29;100.00
29045;BME280;16133;49.486;12.176;2023-05-16T01:56:16;96607.50;;;8.14;100.00
29045;BME280;16133;49.486;12.176;2023-05-16T01:58:43;96618.72;;;8.02;100.00
29045;BME280;16133;49.486;12.176;2023-05-16T02:01:08;96631.84;;;7.95;100.00
29045;BME280;16133;49.486;12.176;2023-05-16T02:03:34;96643.78;;;7.91;100.00
29045;BME280;16133;49.486;12.176;2023-05-16T02:06:00;96639.31;;;7.92;100.00
29045;BME280;16133;49.486;12.176;2023-05-16T02:08:26;96632.66;;;7.96;100.00
29045;BME280;16133;49.486;12.176;2023-05-16T02:10:52;96617.88;;;8.01;100.00
29045;BME280;16133;49.486;12.176;2023-05-16T02:13:18;96615.81;;;8.11;100.00
29045;BME280;16133;49.486;12.176;2023-05-16T02:15:43;96605.75;;;8.22;100.00
29045;BME280;16133;49.486;12.176;2023-05-16T02:18:09;96595.13;;;8.30;100.00
29045;BME280;16133;49.486;12.176;2023-05-16T02:20:35;96593.19;;;8.38;100.00
29045;BME280;16133;49.486;12.176;2023-05-16T02:23:00;96580.88;;;8.45;100.00
29045;BME280;16133;49.486;12.176;2023-05-16T02:25:27;96572.19;;;8.51;100.00
29045;BME280;16133;49.486;12.176;2023-05-16T02:27:53;96571.84;;;8.54;100.00
29045;BME280;16133;49.486;12.176;2023-05-16T02:30:18;96574.28;;;8.56;100.00
29045;BME280;16133;49.486;12.176;2023-05-16T02:32:43;96569.41;;;8.59;100.00
29045;BME280;16133;49.486;12.176;2023-05-16T02:35:09;96563.75;;;8.62;100.00
29045;BME280;16133;49.486;12.176;2023-05-16T02:37:35;96561.31;;;8.61;100.00
29045;BME280;16133;49.486;12.176;2023-05-16T02:40:00;96563.97;;;8.61;100.00
29045;BME280;16133;49.486;12.176;2023-05-16T02:42:25;96554.75;;;8.57;100.00
29045;BME280;16133;49.486;12.176;2023-05-16T02:44:51;96563.69;;;8.56;100.00
29045;BME280;16133;49.486;12.176;2023-05-16T02:47:17;96557.13;;;8.52;100.00
29045;BME280;16133;49.486;12.176;2023-05-16T02:49:43;96552.69;;;8.52;100.00
29045;BME280;16133;49.486;12.176;2023-05-16T02:52:08;96551.84;;;8.52;100.00
29045;BME280;16133;49.486;12.176;2023-05-16T02:54:34;96550.22;;;8.51;100.00
29045;BME280;16133;49.486;12.176;2023-05-16T02:56:59;96549.41;;;8.50;100.00
29045;BME280;16133;49.486;12.176;2023-05-16T02:59:25;96551.84;;;8.52;100.00
29045;BME280;16133;49.486;12.176;2023-05-16T03:01:51;96548.16;;;8.46;100.00
29045;BME280;16133;49.486;12.176;2023-05-16T03:04:16;96547.72;;;8.43;100.00
29045;BME280;16133;49.486;12.176;2023-05-16T03:06:42;96550.91;;;8.38;100.00
29045;BME280;16133;49.486;12.176;2023-05-16T03:09:08;96544.34;;;8.34;100.00
29045;BME280;16133;49.486;12.176;2023-05-16T03:11:33;96538.16;;;8.27;100.00
29045;BME280;16133;49.486;12.176;2023-05-16T03:13:59;96550.47;;;8.20;100.00
29045;BME280;16133;49.486;12.176;2023-05-16T03:16:24;96545.28;;;8.12;100.00
29045;BME280;16133;49.486;12.176;2023-05-16T03:18:50;96550.41;;;7.99;100.00
29045;BME280;16133;49.486;12.176;2023-05-16T03:21:15;96568.81;;;7.92;100.00
29045;BME280;16133;49.486;12.176;2023-05-16T03:23:42;96565.91;;;7.87;100.00
29045;BME280;16133;49.486;12.176;2023-05-16T03:26:07;96565.63;;;7.82;100.00
29045;BME280;16133;49.486;12.176;2023-05-16T03:28:33;96569.63;;;7.78;100.00
29045;BME280;16133;49.486;12.176;2023-05-16T03:30:58;96576.28;;;7.74;100.00
29045;BME280;16133;49.486;12.176;2023-05-16T03:33:24;96580.94;;;7.72;100.00
29045;BME280;16133;49.486;12.176;2023-05-16T03:35:50;96575.19;;;7.68;100.00
29045;BME280;16133;49.486;12.176;2023-05-16T03:38:16;96584.84;;;7.61;100.00
29045;BME280;16133;49.486;12.176;2023-05-16T03:40:42;96585.53;;;7.55;100.00
29045;BME280;16133;49.486;12.176;2023-05-16T03:43:08;96595.66;;;7.52;100.00
29045;BME280;16133;49.486;12.176;2023-05-16T03:45:33;96603.31;;;7.47;100.00
29045;BME280;16133;49.486;12.176;2023-05-16T03:47:58;96602.66;;;7.45;100.00
29045;BME280;16133;49.486;12.176;2023-05-16T03:50:24;96600.38;;;7.42;100.00
29045;BME280;16133;49.486;12.176;2023-05-16T03:52:50;96601.19;;;7.42;100.00
29045;BME280;16133;49.486;12.176;2023-05-16T03:55:16;96606.47;;;7.42;100.00
29045;BME280;16133;49.486;12.176;2023-05-16T03:57:42;96597.75;;;7.42;100.00
29045;BME280;16133;49.486;12.176;2023-05-16T04:00:08;96596.38;;;7.46;100.00
29045;BME280;16133;49.486;12.176;2023-05-16T04:02:35;96599.31;;;7.51;100.00
29045;BME280;16133;49.486;12.176;2023-05-16T04:05:00;96596.94;;;7.56;100.00
29045;BME280;16133;49.486;12.176;2023-05-16T04:07:26;96590.28;;;7.60;100.00
29045;BME280;16133;49.486;12.176;2023-05-16T04:09:53;96593.38;;;7.63;100.00
29045;BME280;16133;49.486;12.176;2023-05-16T04:12:18;96592.41;;;7.64;100.00
29045;BME280;16133;49.486;12.176;2023-05-16T04:14:44;96604.41;;;7.67;100.00
29045;BME280;16133;49.486;12.176;2023-05-16T04:17:09;96606.72;;;7.70;100.00
29045;BME280;16133;49.486;12.176;2023-05-16T04:19:36;96615.53;;;7.77;100.00
29045;BME280;16133;49.486;12.176;2023-05-16T04:22:01;96612.81;;;7.85;100.00
29045;BME280;16133;49.486;12.176;2023-05-16T04:24:27;96615.16;;;7.95;100.00
29045;BME280;16133;49.486;12.176;2023-05-16T04:26:53;96618.34;;;8.05;100.00
29045;BME280;16133;49.486;12.176;2023-05-16T04:29:19;96625.00;;;8.15;100.00
29045;BME280;16133;49.486;12.176;2023-05-16T04:31:45;96618.59;;;8.25;100.00
29045;BME280;16133;49.486;12.176;2023-05-16T04:34:11;96617.53;;;8.34;100.00
29045;BME280;16133;49.486;12.176;2023-05-16T04:36:37;96612.16;;;8.42;100.00
29045;BME280;16133;49.486;12.176;2023-05-16T04:39:02;96614.03;;;8.48;100.00
29045;BME280;16133;49.486;12.176;2023-05-16T04:41:31;96612.09;;;8.56;100.00
29045;BME280;16133;49.486;12.176;2023-05-16T04:43:56;96612.38;;;8.61;100.00
29045;BME280;16133;49.486;12.176;2023-05-16T04:46:22;96609.78;;;8.68;100.00
29045;BME280;16133;49.486;12.176;2023-05-16T04:48:48;96607.41;;;8.73;100.00
29045;BME280;16133;49.486;12.176;2023-05-16T04:51:13;96608.25;;;8.74;100.00
29045;BME280;16133;49.486;12.176;2023-05-16T04:53:39;96610.69;;;8.75;100.00
29045;BME280;16133;49.486;12.176;2023-05-16T04:56:04;96613.38;;;8.82;100.00
29045;BME280;16133;49.486;12.176;2023-05-16T04:58:30;96611.06;;;8.93;100.00
29045;BME280;16133;49.486;12.176;2023-05-16T05:00:55;96602.69;;;9.11;100.00
29045;BME280;16133;49.486;12.176;2023-05-16T05:03:22;96592.47;;;9.29;100.00
29045;BME280;16133;49.486;12.176;2023-05-16T05:05:47;96594.31;;;9.56;100.00
29045;BME280;16133;49.486;12.176;2023-05-16T05:08:13;96593.69;;;9.89;100.00
29045;BME280;16133;49.486;12.176;2023-05-16T05:10:38;96587.59;;;10.23;100.00
29045;BME280;16133;49.486;12.176;2023-05-16T05:13:04;96580.38;;;10.58;100.00
29045;BME280;16133;49.486;12.176;2023-05-16T05:15:29;96573.09;;;10.86;100.00
29045;BME280;16133;49.486;12.176;2023-05-16T05:17:55;96579.06;;;11.08;100.00
29045;BME280;16133;49.486;12.176;2023-05-16T05:20:20;96578.44;;;11.25;100.00
29045;BME280;16133;49.486;12.176;2023-05-16T05:22:46;96581.09;;;11.32;100.00
29045;BME280;16133;49.486;12.176;2023-05-16T05:25:13;96581.09;;;11.32;100.00
29045;BME280;16133;49.486;12.176;2023-05-16T05:27:38;96594.19;;;11.40;100.00
29045;BME280;16133;49.486;12.176;2023-05-16T05:30:04;96599.09;;;11.56;100.00
29045;BME280;16133;49.486;12.176;2023-05-16T05:32:30;96598.50;;;11.80;100.00
29045;BME280;16133;49.486;12.176;2023-05-16T05:34:56;96607.22;;;12.07;100.00
29045;BME280;16133;49.486;12.176;2023-05-16T05:37:21;96606.44;;;12.51;100.00
29045;BME280;16133;49.486;12.176;2023-05-16T05:39:46;96606.09;;;12.85;100.00
29045;BME280;16133;49.486;12.176;2023-05-16T05:42:12;96642.91;;;12.95;100.00
29045;BME280;16133;49.486;12.176;2023-05-16T05:44:37;96667.41;;;13.17;100.00
29045;BME280;16133;49.486;12.176;2023-05-16T05:47:06;96678.59;;;13.63;100.00
29045;BME280;16133;49.486;12.176;2023-05-16T05:49:31;96686.34;;;14.14;100.00
29045;BME280;16133;49.486;12.176;2023-05-16T05:51:57;96705.56;;;14.84;100.00
29045;BME280;16133;49.486;12.176;2023-05-16T05:54:23;96762.03;;;15.24;100.00
29045;BME280;16133;49.486;12.176;2023-05-16T05:56:49;96806.25;;;15.74;100.00
29045;BME280;16133;49.486;12.176;2023-05-16T05:59:14;96864.28;;;15.74;100.00
29045;BME280;16133;49.486;12.176;2023-05-16T06:01:40;96882.69;;;15.82;100.00
29045;BME280;16133;49.486;12.176;2023-05-16T06:04:06;96899.25;;;15.72;100.00
29045;BME280;16133;49.486;12.176;2023-05-16T06:06:31;96894.59;;;15.50;100.00
29045;BME280;16133;49.486;12.176;2023-05-16T06:08:57;96899.53;;;15.28;100.00
29045;BME280;16133;49.486;12.176;2023-05-16T06:11:23;96901.13;;;15.11;100.00
29045;BME280;16133;49.486;12.176;2023-05-16T06:13:51;96903.41;;;15.07;100.00
29045;BME280;16133;49.486;12.176;2023-05-16T06:16:17;96895.28;;;15.02;100.00
29045;BME280;16133;49.486;12.176;2023-05-16T06:18:43;96911.59;;;14.88;100.00
29045;BME280;16133;49.486;12.176;2023-05-16T06:21:08;96922.63;;;14.73;100.00
29045;BME280;16133;49.486;12.176;2023-05-16T06:23:34;96940.50;;;14.72;100.00
29045;BME280;16133;49.486;12.176;2023-05-16T06:26:00;96960.25;;;14.71;100.00
29045;BME280;16133;49.486;12.176;2023-05-16T06:28:29;96993.13;;;14.65;100.00
29045;BME280;16133;49.486;12.176;2023-05-16T06:30:55;96991.28;;;14.66;100.00
29045;BME280;16133;49.486;12.176;2023-05-16T06:33:20;96991.69;;;14.69;100.00
29045;BME280;16133;49.486;12.176;2023-05-16T06:35:46;96993.53;;;14.69;100.00
29045;BME280;16133;49.486;12.176;2023-05-16T06:38:13;97000.13;;;14.66;100.00
29045;BME280;16133;49.486;12.176;2023-05-16T06:40:39;96996.81;;;14.71;100.00
29045;BME280;16133;49.486;12.176;2023-05-16T06:43:04;97000.38;;;14.58;100.00
29045;BME280;16133;49.486;12.176;2023-05-16T06:45:30;96998.66;;;14.32;100.00
29045;BME280;16133;49.486;12.176;2023-05-16T06:47:55;97001.63;;;14.05;100.00
29045;BME280;16133;49.486;12.176;2023-05-16T06:50:21;97002.53;;;13.85;100.00
29045;BME280;16133;49.486;12.176;2023-05-16T06:52:47;97011.38;;;13.66;100.00
29045;BME280;16133;49.486;12.176;2023-05-16T06:55:12;96998.69;;;13.62;100.00
29045;BME280;16133;49.486;12.176;2023-05-16T06:57:37;96996.81;;;13.75;100.00
29045;BME280;16133;49.486;12.176;2023-05-16T07:00:03;96991.44;;;13.88;100.00
29045;BME280;16133;49.486;12.176;2023-05-16T07:02:29;96994.69;;;13.97;100.00
29045;BME280;16133;49.486;12.176;2023-05-16T07:04:54;96996.31;;;14.05;100.00
29045;BME280;16133;49.486;12.176;2023-05-16T07:07:20;96997.94;;;14.06;100.00
29045;BME280;16133;49.486;12.176;2023-05-16T07:09:45;97002.41;;;14.12;100.00
29045;BME280;16133;49.486;12.176;2023-05-16T07:12:10;97001.59;;;14.11;100.00
29045;BME280;16133;49.486;12.176;2023-05-16T07:14:36;97010.00;;;14.15;100.00
29045;BME280;16133;49.486;12.176;2023-05-16T07:17:01;97005.47;;;14.22;100.00
29045;BME280;16133;49.486;12.176;2023-05-16T07:19:26;97007.66;;;14.38;100.00
29045;BME280;16133;49.486;12.176;2023-05-16T07:21:52;97013.34;;;14.55;100.00
29045;BME280;16133;49.486;12.176;2023-05-16T07:24:18;97021.38;;;14.86;100.00
29045;BME280;16133;49.486;12.176;2023-05-16T07:26:43;97017.66;;;14.87;100.00
29045;BME280;16133;49.486;12.176;2023-05-16T07:29:09;97021.50;;;14.98;100.00
29045;BME280;16133;49.486;12.176;2023-05-16T07:31:34;97015.19;;;15.17;100.00
29045;BME280;16133;49.486;12.176;2023-05-16T07:34:00;97019.19;;;15.26;100.00
29045;BME280;16133;49.486;12.176;2023-05-16T07:36:25;97014.03;;;15.31;100.00
29045;BME280;16133;49.486;12.176;2023-05-16T07:38:51;97016.66;;;15.62;100.00
29045;BME280;16133;49.486;12.176;2023-05-16T07:41:16;97024.56;;;15.94;100.00
29045;BME280;16133;49.486;12.176;2023-05-16T07:43:41;97023.44;;;16.01;100.00
29045;BME280;16133;49.486;12.176;2023-05-16T07:46:07;97028.13;;;16.06;100.00
29045;BME280;16133;49.486;12.176;2023-05-16T07:48:32;97034.06;;;16.08;100.00
29045;BME280;16133;49.486;12.176;2023-05-16T07:50:58;97032.13;;;16.15;98.55
29045;BME280;16133;49.486;12.176;2023-05-16T07:53:23;97024.09;;;16.33;100.00
29045;BME280;16133;49.486;12.176;2023-05-16T07:55:52;97037.09;;;16.66;93.93
29045;BME280;16133;49.486;12.176;2023-05-16T07:58:17;97033.94;;;16.99;83.59
29045;BME280;16133;49.486;12.176;2023-05-16T08:00:44;97043.53;;;17.18;85.20
29045;BME280;16133;49.486;12.176;2023-05-16T08:03:09;97048.75;;;17.54;78.23
29045;BME280;16133;49.486;12.176;2023-05-16T08:05:35;97047.72;;;17.79;71.64
29045;BME280;16133;49.486;12.176;2023-05-16T08:08:00;97052.63;;;17.93;70.35
29045;BME280;16133;49.486;12.176;2023-05-16T08:10:26;97042.09;;;18.15;69.03
29045;BME280;16133;49.486;12.176;2023-05-16T08:12:51;97040.25;;;18.55;67.11
29045;BME280;16133;49.486;12.176;2023-05-16T08:15:18;97032.56;;;18.47;66.20
29045;BME280;16133;49.486;12.176;2023-05-16T08:17:43;97042.03;;;18.38;64.77
29045;BME280;16133;49.486;12.176;2023-05-16T08:20:09;97041.00;;;18.39;65.97
29045;BME280;16133;49.486;12.176;2023-05-16T08:22:34;97035.81;;;18.49;63.99
29045;BME280;16133;49.486;12.176;2023-05-16T08:25:00;97035.47;;;18.57;64.01
29045;BME280;16133;49.486;12.176;2023-05-16T08:27:26;97034.75;;;18.62;64.73
29045;BME280;16133;49.486;12.176;2023-05-16T08:29:52;97041.31;;;18.83;63.03
29045;BME280;16133;49.486;12.176;2023-05-16T08:32:17;97037.75;;;18.94;63.92
29045;BME280;16133;49.486;12.176;2023-05-16T08:34:43;97034.94;;;19.17;60.81
29045;BME280;16133;49.486;12.176;2023-05-16T08:37:08;97039.22;;;18.85;61.13
29045;BME280;16133;49.486;12.176;2023-05-16T08:39:35;97031.75;;;19.03;60.10
29045;BME280;16133;49.486;12.176;2023-05-16T08:42:00;97038.44;;;19.18;59.09
29045;BME280;16133;49.486;12.176;2023-05-16T08:44:27;97042.22;;;19.33;59.89
29045;BME280;16133;49.486;12.176;2023-05-16T08:46:53;97038.19;;;19.64;59.80
29045;BME280;16133;49.486;12.176;2023-05-16T08:49:19;97038.94;;;19.98;58.05
29045;BME280;16133;49.486;12.176;2023-05-16T08:51:46;97039.84;;;20.25;57.70
29045;BME280;16133;49.486;12.176;2023-05-16T08:54:14;97032.88;;;20.46;56.46
29045;BME280;16133;49.486;12.176;2023-05-16T08:56:41;97033.81;;;20.57;55.81
29045;BME280;16133;49.486;12.176;2023-05-16T08:59:08;97038.84;;;20.70;55.23
29045;BME280;16133;49.486;12.176;2023-05-16T09:01:34;97043.66;;;20.68;55.24
29045;BME280;16133;49.486;12.176;2023-05-16T09:04:00;97035.31;;;20.69;54.30
29045;BME280;16133;49.486;12.176;2023-05-16T09:06:27;97043.41;;;20.69;54.39
29045;BME280;16133;49.486;12.176;2023-05-16T09:08:53;97041.41;;;20.60;54.54
29045;BME280;16133;49.486;12.176;2023-05-16T09:11:19;97044.72;;;20.45;55.53
29045;BME280;16133;49.486;12.176;2023-05-16T09:13:46;97051.47;;;20.47;54.55
29045;BME280;16133;49.486;12.176;2023-05-16T09:16:16;97047.84;;;20.37;54.60
29045;BME280;16133;49.486;12.176;2023-05-16T09:18:43;97050.63;;;20.25;54.83
29045;BME280;16133;49.486;12.176;2023-05-16T09:21:10;97043.59;;;20.24;53.60
29045;BME280;16133;49.486;12.176;2023-05-16T09:23:36;97049.50;;;20.21;55.50
29045;BME280;16133;49.486;12.176;2023-05-16T09:26:04;97037.09;;;20.20;55.28
29045;BME280;16133;49.486;12.176;2023-05-16T09:28:30;97035.63;;;20.29;55.03
29045;BME280;16133;49.486;12.176;2023-05-16T09:30:56;97028.66;;;20.12;55.99
29045;BME280;16133;49.486;12.176;2023-05-16T09:33:26;97034.25;;;19.72;56.68
29045;BME280;16133;49.486;12.176;2023-05-16T09:35:59;97027.91;;;19.44;56.69
29045;BME280;16133;49.486;12.176;2023-05-16T09:38:26;97030.38;;;19.01;57.17
29045;BME280;16133;49.486;12.176;2023-05-16T09:40:55;97026.84;;;18.84;56.44
29045;BME280;16133;49.486;12.176;2023-05-16T09:43:25;97018.31;;;18.58;58.10
29045;BME280;16133;49.486;12.176;2023-05-16T09:45:51;97020.69;;;18.32;59.34
29045;BME280;16133;49.486;12.176;2023-05-16T09:48:17;97022.44;;;18.26;59.54
29045;BME280;16133;49.486;12.176;2023-05-16T09:50:51;97021.78;;;18.07;59.64
29045;BME280;16133;49.486;12.176;2023-05-16T09:53:23;97025.19;;;18.03;59.29
29045;BME280;16133;49.486;12.176;2023-05-16T09:55:58;97027.84;;;18.14;59.98
29045;BME280;16133;49.486;12.176;2023-05-16T09:58:28;97029.34;;;18.22;59.24
29045;BME280;16133;49.486;12.176;2023-05-16T10:00:54;97023.94;;;18.34;58.70
29045;BME280;16133;49.486;12.176;2023-05-16T10:03:21;97017.66;;;18.28;57.59
29045;BME280;16133;49.486;12.176;2023-05-16T10:05:47;97024.44;;;18.19;58.80
29045;BME280;16133;49.486;12.176;2023-05-16T10:08:14;97025.72;;;18.28;60.26
29045;BME280;16133;49.486;12.176;2023-05-16T10:10:40;97025.94;;;18.27;57.97
29045;BME280;16133;49.486;12.176;2023-05-16T10:13:06;97018.78;;;18.32;57.18
29045;BME280;16133;49.486;12.176;2023-05-16T10:15:35;97024.38;;;18.42;56.66
29045;BME280;16133;49.486;12.176;2023-05-16T10:18:02;97013.03;;;18.52;56.79
29045;BME280;16133;49.486;12.176;2023-05-16T10:20:29;97005.16;;;18.74;56.34
29045;BME280;16133;49.486;12.176;2023-05-16T10:22:55;97005.56;;;18.82;56.28
29045;BME280;16133;49.486;12.176;2023-05-16T10:25:31;97013.88;;;18.97;54.49
29045;BME280;16133;49.486;12.176;2023-05-16T10:27:58;97023.25;;;18.95;56.10
29045;BME280;16133;49.486;12.176;2023-05-16T10:30:24;97024.25;;;19.05;56.48
29045;BME280;16133;49.486;12.176;2023-05-16T10:32:52;97028.78;;;19.33;55.78
29045;BME280;16133;49.486;12.176;2023-05-16T10:35:18;97016.19;;;19.50;56.88
29045;BME280;16133;49.486;12.176;2023-05-16T10:37:49;97025.78;;;19.63;57.16
29045;BME280;16133;49.486;12.176;2023-05-16T10:40:15;97009.47;;;19.53;55.49
29045;BME280;16133;49.486;12.176;2023-05-16T10:43:02;97004.13;;;19.25;54.99
29045;BME280;16133;49.486;12.176;2023-05-16T10:45:28;97009.38;;;19.15;56.27
29045;BME280;16133;49.486;12.176;2023-05-16T10:47:55;97004.88;;;19.03;56.85
29045;BME280;16133;49.486;12.176;2023-05-16T10:53:38;97006.59;;;19.26;56.77
29045;BME280;16133;49.486;12.176;2023-05-16T10:56:06;97010.28;;;19.20;55.09
29045;BME280;16133;49.486;12.176;2023-05-16T11:06:25;97011.25;;;18.86;55.02
29045;BME280;16133;49.486;12.176;2023-05-16T11:09:26;97012.66;;;18.60;52.50
29045;BME280;16133;49.486;12.176;2023-05-16T11:19:45;97016.91;;;18.84;54.87
29045;BME280;16133;49.486;12.176;2023-05-16T11:22:31;97006.25;;;19.06;53.47
29045;BME280;16133;49.486;12.176;2023-05-16T11:25:05;97006.03;;;19.07;53.04
29045;BME280;16133;49.486;12.176;2023-05-16T11:27:46;97002.59;;;19.29;53.85
29045;BME280;16133;49.486;12.176;2023-05-16T11:30:14;97003.91;;;19.60;53.19
29045;BME280;16133;49.486;12.176;2023-05-16T11:32:42;96998.22;;;19.56;52.91
29045;BME280;16133;49.486;12.176;2023-05-16T11:35:10;97010.66;;;19.79;53.90
29045;BME280;16133;49.486;12.176;2023-05-16T11:37:35;97010.38;;;19.97;51.75
29045;BME280;16133;49.486;12.176;2023-05-16T11:40:04;97024.22;;;20.05;51.23
29045;BME280;16133;49.486;12.176;2023-05-16T11:42:40;97017.97;;;20.00;51.08
29045;BME280;16133;49.486;12.176;2023-05-16T11:45:08;97005.56;;;19.99;52.38
29045;BME280;16133;49.486;12.176;2023-05-16T11:47:41;97019.66;;;19.84;52.65
29045;BME280;16133;49.486;12.176;2023-05-16T11:52:51;97018.91;;;19.89;51.95
29045;BME280;16133;49.486;12.176;2023-05-16T11:55:19;97018.13;;;19.93;51.83
29045;BME280;16133;49.486;12.176;2023-05-16T11:57:45;97036.53;;;19.96;52.00
29045;BME280;16133;49.486;12.176;2023-05-16T12:00:16;97011.50;;;19.63;52.77
29045;BME280;16133;49.486;12.176;2023-05-16T12:02:47;97043.00;;;19.45;52.78
29045;BME280;16133;49.486;12.176;2023-05-16T12:05:14;97037.34;;;19.30;53.29
29045;BME280;16133;49.486;12.176;2023-05-16T12:07:42;97044.06;;;19.44;53.46
29045;BME280;16133;49.486;12.176;2023-05-16T12:10:09;97042.91;;;19.57;52.65
29045;BME280;16133;49.486;12.176;2023-05-16T12:12:37;97055.06;;;19.43;52.48
29045;BME280;16133;49.486;12.176;2023-05-16T12:15:03;97054.00;;;19.44;52.69
29045;BME280;16133;49.486;12.176;2023-05-16T12:17:40;97061.84;;;19.45;51.36
29045;BME280;16133;49.486;12.176;2023-05-16T12:20:08;97051.34;;;19.32;52.00
29045;BME280;16133;49.486;12.176;2023-05-16T12:22:39;97062.59;;;19.13;52.78
29045;BME280;16133;49.486;12.176;2023-05-16T12:27:50;97055.53;;;18.95;52.47
29045;BME280;16133;49.486;12.176;2023-05-16T12:30:16;97056.97;;;18.57;52.76
29045;BME280;16133;49.486;12.176;2023-05-16T12:32:43;97062.22;;;18.52;53.28
29045;BME280;16133;49.486;12.176;2023-05-16T12:35:10;97060.25;;;18.36;54.82
29045;BME280;16133;49.486;12.176;2023-05-16T12:37:37;97067.50;;;18.47;54.78
29045;BME280;16133;49.486;12.176;2023-05-16T12:40:03;97069.25;;;18.53;55.92
29045;BME280;16133;49.486;12.176;2023-05-16T12:42:30;97068.78;;;18.33;54.35
29045;BME280;16133;49.486;12.176;2023-05-16T12:44:55;97070.25;;;18.01;55.01
29045;BME280;16133;49.486;12.176;2023-05-16T12:47:21;97072.25;;;17.82;56.29
29045;BME280;16133;49.486;12.176;2023-05-16T12:49:47;97078.44;;;17.30;56.30
29045;BME280;16133;49.486;12.176;2023-05-16T12:52:19;97094.81;;;17.10;56.63
29045;BME280;16133;49.486;12.176;2023-05-16T12:54:45;97089.00;;;16.83;58.56
29045;BME280;16133;49.486;12.176;2023-05-16T12:57:11;97086.81;;;16.62;58.21
29045;BME280;16133;49.486;12.176;2023-05-16T12:59:36;97082.09;;;16.39;59.71
29045;BME280;16133;49.486;12.176;2023-05-16T13:02:02;97093.56;;;16.46;59.17
29045;BME280;16133;49.486;12.176;2023-05-16T13:04:28;97090.91;;;16.28;59.09
29045;BME280;16133;49.486;12.176;2023-05-16T13:06:54;97094.69;;;16.20;59.57
29045;BME280;16133;49.486;12.176;2023-05-16T13:09:19;97098.97;;;16.03;61.81
29045;BME280;16133;49.486;12.176;2023-05-16T13:11:44;97097.84;;;15.93;61.67
29045;BME280;16133;49.486;12.176;2023-05-16T13:14:10;97103.19;;;15.93;61.96
29045;BME280;16133;49.486;12.176;2023-05-16T13:16:35;97104.56;;;15.77;62.43
29045;BME280;16133;49.486;12.176;2023-05-16T13:19:00;97101.19;;;15.88;63.48
29045;BME280;16133;49.486;12.176;2023-05-16T13:21:26;97104.38;;;15.97;62.66
29045;BME280;16133;49.486;12.176;2023-05-16T13:23:54;97107.44;;;16.00;61.70